クェゼリン環礁 の空港の天気 - METARとTAF

バックホルツ陸軍飛行場 ( PKWA / KWA ) - マーシャル諸島 クェゼリン環礁
飛行場実況気象(Metar)
観測時間12/01 05:40 MHT (11/30 17:40 UTC)
風向・風速東北東 6m/s
視程10km以上
天気現象
全天の4割程度の雲 雲底高度 760m
気温27℃
湿度76%
気圧1007hPa
METARPKWA 301740Z AUTO 06012KT 10SM SCT025 27/22 A2975 RMK AO2 T02700224
過去の天気等 Google飛行場航空写真 Wunderground天気予報

過去48時間のMETAR

飛行場予報(TAF)
発表時間: 12/01 05:37 MHT (11/30 17:37 UTC)
予報対象時間: 1日6時 MHT ~ 2日6時 MHT
風向・風速東北東 6m/s
視程10km以上
天気現象周辺でしゅう雨
全天の4割程度の雲 雲底高度 760m
PKWA 301737Z 3018/0118 07011KT P6SM VCSH SCT025